Time;durP1;ratioP1;P1;durP2;ratioP2;P2;SDS_P1;SDS_P2;PMS_P1;PMS_P2;Temp;Humidity;BMP_temperature;BMP_pressure;BME280_temperature;BME280_humidity;BME280_pressure;Samples;Min_cycle;Max_cycle;Signal;HPM_P1;HPM_P2
2023/04/28 00:00:29;;;;;;;42.20;19.70;;;;;;;;;;110149;1276;22110;-75
2023/04/28 00:03:16;;;;;;;47.90;21.70;;;;;;;;;;110253;1279;22854;-75
2023/04/28 00:05:43;;;;;;;50.30;22.10;;;;;;;;;;110260;1260;22786;-75
2023/04/28 00:08:10;;;;;;;52.40;22.60;;;;;;;;;;110297;1278;22112;-76
2023/04/28 00:10:36;;;;;;;48.50;22.70;;;;;;;;;;110252;1278;22211;-75
2023/04/28 00:13:03;;;;;;;44.80;21.50;;;;;;;;;;110239;1278;22100;-76
2023/04/28 00:15:30;;;;;;;45.20;20.50;;;;;;;;;;110286;1255;22895;-75
2023/04/28 00:17:56;;;;;;;51.00;23.80;;;;;;;;;;110221;1278;22400;-76
2023/04/28 00:20:23;;;;;;;49.90;22.60;;;;;;;;;;110152;1279;22111;-75
2023/04/28 00:22:50;;;;;;;48.60;22.90;;;;;;;;;;110230;1279;22506;-76
2023/04/28 00:25:16;;;;;;;43.10;21.90;;;;;;;;;;110251;1279;22178;-75
2023/04/28 00:27:43;;;;;;;51.80;24.20;;;;;;;;;;110637;1259;22937;-75
2023/04/28 00:30:10;;;;;;;49.90;23.80;;;;;;;;;;110123;1278;22111;-76
2023/04/28 00:32:36;;;;;;;49.10;23.10;;;;;;;;;;110233;1278;22090;-75
2023/04/28 00:35:03;;;;;;;54.90;23.50;;;;;;;;;;110225;1280;22107;-76
2023/04/28 00:37:30;;;;;;;51.80;24.20;;;;;;;;;;110416;1257;22241;-75
2023/04/28 00:39:57;;;;;;;44.40;23.10;;;;;;;;;;110094;1280;22098;-76
2023/04/28 00:42:24;;;;;;;53.10;24.20;;;;;;;;;;110065;1280;22116;-75
2023/04/28 00:44:51;;;;;;;55.10;24.20;;;;;;;;;;110053;1280;22116;-75
2023/04/28 00:47:20;;;;;;;59.30;25.50;;;;;;;;;;110211;1267;22114;-75
2023/04/28 00:49:48;;;;;;;55.80;23.50;;;;;;;;;;110111;1280;22193;-75
2023/04/28 00:52:15;;;;;;;52.90;24.30;;;;;;;;;;110068;1280;22710;-76
2023/04/28 00:54:42;;;;;;;55.50;25.00;;;;;;;;;;110211;1280;22098;-75
2023/04/28 00:57:09;;;;;;;54.90;25.00;;;;;;;;;;110257;1262;22178;-75
2023/04/28 00:59:35;;;;;;;58.30;25.60;;;;;;;;;;110220;1280;22120;-75
2023/04/28 01:02:02;;;;;;;56.20;25.00;;;;;;;;;;110228;1268;22221;-75
2023/04/28 01:04:29;;;;;;;59.30;26.30;;;;;;;;;;110099;1276;22118;-76
2023/04/28 01:06:57;;;;;;;56.30;26.00;;;;;;;;;;110127;1271;22197;-75
2023/04/28 01:09:24;;;;;;;57.10;27.00;;;;;;;;;;110237;1279;22214;-75
2023/04/28 01:11:51;;;;;;;55.80;27.00;;;;;;;;;;110085;1280;22837;-75
2023/04/28 01:14:31;;;;;;;53.10;24.80;;;;;;;;;;110093;1280;22102;-75
2023/04/28 01:16:58;;;;;;;57.30;26.00;;;;;;;;;;110198;1256;22244;-75
2023/04/28 01:19:24;;;;;;;56.30;26.50;;;;;;;;;;110220;1280;22102;-75
2023/04/28 01:21:51;;;;;;;62.90;29.70;;;;;;;;;;110066;1280;22094;-75
2023/04/28 01:24:22;;;;;;;70.50;31.50;;;;;;;;;;110205;1280;22191;-75
2023/04/28 01:26:49;;;;;;;64.40;29.10;;;;;;;;;;110073;1257;22498;-75
2023/04/28 01:29:16;;;;;;;63.70;29.40;;;;;;;;;;110052;1280;22797;-75
2023/04/28 01:31:43;;;;;;;61.60;29.20;;;;;;;;;;110112;1278;22740;-75
2023/04/28 01:34:10;;;;;;;58.20;27.80;;;;;;;;;;110031;1281;22888;-75
2023/04/28 01:36:37;;;;;;;49.50;23.30;;;;;;;;;;110030;1281;22798;-75
2023/04/28 01:39:04;;;;;;;49.30;23.70;;;;;;;;;;110379;1262;22302;-75
2023/04/28 01:41:33;;;;;;;53.00;23.70;;;;;;;;;;110132;1280;22205;-75
2023/04/28 01:44:00;;;;;;;48.70;23.10;;;;;;;;;;110130;1280;22359;-75
2023/04/28 01:46:27;;;;;;;49.50;23.00;;;;;;;;;;110120;1280;22832;-75
2023/04/28 01:48:54;;;;;;;46.00;22.50;;;;;;;;;;110288;1262;22330;-75
2023/04/28 01:51:21;;;;;;;47.20;23.20;;;;;;;;;;110058;1281;22213;-75
2023/04/28 01:53:48;;;;;;;48.30;23.30;;;;;;;;;;110086;1281;22794;-75
2023/04/28 01:56:15;;;;;;;45.00;22.00;;;;;;;;;;110100;1281;22108;-75
2023/04/28 01:58:42;;;;;;;50.60;24.40;;;;;;;;;;110310;1273;22144;-75
2023/04/28 02:01:08;;;;;;;46.70;22.20;;;;;;;;;;110081;1280;22789;-75
2023/04/28 02:03:36;;;;;;;52.00;22.60;;;;;;;;;;110079;1280;22116;-75
2023/04/28 02:06:03;;;;;;;50.40;21.50;;;;;;;;;;110068;1280;22344;-75
2023/04/28 02:08:31;;;;;;;46.80;22.70;;;;;;;;;;110165;1263;22122;-75
2023/04/28 02:11:00;;;;;;;48.80;22.20;;;;;;;;;;110076;1281;21768;-75
2023/04/28 02:13:27;;;;;;;48.30;22.90;;;;;;;;;;110077;1281;22280;-75
2023/04/28 02:15:54;;;;;;;47.80;22.60;;;;;;;;;;110032;1281;22117;-76
2023/04/28 02:18:21;;;;;;;47.80;22.40;;;;;;;;;;110069;1262;22142;-75
2023/04/28 02:20:48;;;;;;;49.90;22.30;;;;;;;;;;110053;1280;22234;-75
2023/04/28 02:23:14;;;;;;;48.30;23.00;;;;;;;;;;110114;1280;22643;-75
2023/04/28 02:25:41;;;;;;;52.20;23.00;;;;;;;;;;110178;1280;22818;-76
2023/04/28 02:28:08;;;;;;;46.70;20.80;;;;;;;;;;110089;1259;22062;-75
2023/04/28 02:30:35;;;;;;;40.90;19.60;;;;;;;;;;110036;1281;22131;-75
2023/04/28 02:33:02;;;;;;;38.40;18.10;;;;;;;;;;110076;1281;22128;-75
2023/04/28 02:35:30;;;;;;;40.20;18.40;;;;;;;;;;110090;1281;22187;-75
2023/04/28 02:37:58;;;;;;;39.10;17.50;;;;;;;;;;110032;1282;22092;-75
2023/04/28 02:40:25;;;;;;;37.60;17.40;;;;;;;;;;110420;1263;22145;-75
2023/04/28 02:42:53;;;;;;;35.00;16.90;;;;;;;;;;110072;1281;22178;-75
2023/04/28 02:45:20;;;;;;;38.50;17.00;;;;;;;;;;110122;1281;22928;-75
2023/04/28 02:47:48;;;;;;;35.10;16.50;;;;;;;;;;110080;1281;23010;-75
2023/04/28 02:50:17;;;;;;;36.70;16.70;;;;;;;;;;110288;1264;22125;-75
2023/04/28 02:52:44;;;;;;;36.60;17.30;;;;;;;;;;110049;1282;22196;-75
2023/04/28 02:55:12;;;;;;;36.30;17.30;;;;;;;;;;110077;1282;22079;-75
2023/04/28 02:57:40;;;;;;;37.60;18.40;;;;;;;;;;110062;1282;22135;-75
2023/04/28 03:00:09;;;;;;;37.40;17.50;;;;;;;;;;110273;1258;22186;-75
2023/04/28 03:02:43;;;;;;;33.60;16.70;;;;;;;;;;110136;1281;22228;-75
2023/04/28 03:05:11;;;;;;;37.30;17.50;;;;;;;;;;110130;1281;22734;-75
2023/04/28 03:07:39;;;;;;;35.80;17.20;;;;;;;;;;110071;1281;22710;-75
2023/04/28 03:10:07;;;;;;;31.80;16.30;;;;;;;;;;110259;1262;22113;-75
2023/04/28 03:12:35;;;;;;;38.40;17.80;;;;;;;;;;110052;1282;22121;-75
2023/04/28 03:15:03;;;;;;;40.90;19.30;;;;;;;;;;110056;1282;22923;-75
2023/04/28 03:17:30;;;;;;;39.30;18.90;;;;;;;;;;110058;1282;22656;-75
2023/04/28 03:19:58;;;;;;;35.60;18.80;;;;;;;;;;110133;1264;22148;-76
2023/04/28 03:22:25;;;;;;;40.90;19.60;;;;;;;;;;110115;1281;22297;-75
2023/04/28 03:24:52;;;;;;;35.30;19.10;;;;;;;;;;110098;1281;22109;-75
2023/04/28 03:27:20;;;;;;;40.70;19.10;;;;;;;;;;110137;1281;22084;-75
2023/04/28 03:29:47;;;;;;;39.60;19.40;;;;;;;;;;110082;1260;22294;-75
2023/04/28 03:32:15;;;;;;;38.70;19.40;;;;;;;;;;110053;1282;22196;-75
2023/04/28 03:34:43;;;;;;;38.80;18.90;;;;;;;;;;110033;1282;22550;-75
2023/04/28 03:37:12;;;;;;;37.50;18.60;;;;;;;;;;110044;1282;22847;-75
2023/04/28 03:39:42;;;;;;;37.10;18.70;;;;;;;;;;109986;1260;22149;-75
2023/04/28 03:42:10;;;;;;;36.70;17.30;;;;;;;;;;110034;1267;22055;-75
2023/04/28 03:44:40;;;;;;;37.30;18.00;;;;;;;;;;110059;1281;22097;-75
2023/04/28 03:47:10;;;;;;;39.80;18.60;;;;;;;;;;110090;1281;22942;-75
2023/04/28 03:49:38;;;;;;;37.50;19.10;;;;;;;;;;109999;1260;23228;-75
2023/04/28 03:52:07;;;;;;;40.00;18.50;;;;;;;;;;110038;1282;22106;-75
2023/04/28 03:54:36;;;;;;;41.30;20.30;;;;;;;;;;110053;1282;22706;-75
2023/04/28 03:57:05;;;;;;;39.30;19.50;;;;;;;;;;109971;1282;22122;-75
2023/04/28 03:59:35;;;;;;;40.40;19.40;;;;;;;;;;110043;1282;22237;-75
2023/04/28 04:02:04;;;;;;;37.30;19.60;;;;;;;;;;110386;1264;23009;-75
2023/04/28 04:04:33;;;;;;;43.00;19.70;;;;;;;;;;110032;1281;22034;-75
2023/04/28 04:07:03;;;;;;;39.30;20.00;;;;;;;;;;110089;1281;22113;-75
2023/04/28 04:09:31;;;;;;;36.20;18.80;;;;;;;;;;110053;1281;22096;-75
2023/04/28 04:12:01;;;;;;;41.90;20.70;;;;;;;;;;110294;1261;22135;-75
2023/04/28 04:14:29;;;;;;;39.80;20.10;;;;;;;;;;109988;1283;22122;-75
2023/04/28 04:16:58;;;;;;;37.80;19.40;;;;;;;;;;110065;1282;22082;-75
2023/04/28 04:19:27;;;;;;;37.10;19.50;;;;;;;;;;110068;1270;22104;-75
2023/04/28 04:21:57;;;;;;;36.20;19.30;;;;;;;;;;110148;1260;22137;-75
2023/04/28 04:24:26;;;;;;;39.30;18.80;;;;;;;;;;110039;1281;22099;-75
2023/04/28 04:26:55;;;;;;;36.30;18.50;;;;;;;;;;110013;1281;22159;-75
2023/04/28 04:29:33;;;;;;;38.90;20.40;;;;;;;;;;110026;1281;22101;-75
2023/04/28 04:32:04;;;;;;;36.10;19.20;;;;;;;;;;110242;1264;22212;-75
2023/04/28 04:41:34;;;;;;;36.80;19.00;;;;;;;;;;103761;1292;544843;-83
2023/04/28 04:44:27;;;;;;;43.90;18.80;;;;;;;;;;105985;1288;26614;-77
2023/04/28 04:47:17;;;;;;;36.30;18.00;;;;;;;;;;105983;1288;22590;-79
2023/04/28 04:49:56;;;;;;;39.40;17.60;;;;;;;;;;106243;1288;23938;-78
2023/04/28 04:52:23;;;;;;;38.80;16.90;;;;;;;;;;105982;1270;22548;-83
2023/04/28 04:54:51;;;;;;;38.80;17.00;;;;;;;;;;103872;1285;3081791;-80
2023/04/28 04:57:39;;;;;;;36.80;18.70;;;;;;;;;;106338;1285;22533;-79
2023/04/28 05:00:12;;;;;;;37.50;17.50;;;;;;;;;;106386;1285;25284;-78
2023/04/28 05:06:43;;;;;;;31.50;15.90;;;;;;;;;;106340;1286;24431;-77
2023/04/28 05:09:13;;;;;;;33.30;15.10;;;;;;;;;;106256;1286;25444;-77
2023/04/28 05:11:48;;;;;;;32.10;16.60;;;;;;;;;;106155;1266;24260;-79
2023/04/28 05:14:56;;;;;;;32.10;15.70;;;;;;;;;;106114;1286;22784;-77
2023/04/28 05:17:23;;;;;;;30.00;14.10;;;;;;;;;;106367;1279;22530;-81
2023/04/28 05:20:03;;;;;;;;;;;;;;;;;;;;;
2023/04/28 05:23:14;;;;;;;;;;;;;;;;;;;;;
2023/04/28 05:26:05;;;;;;;35.10;14.90;;;;;;;;;;106615;1277;22532;-76
2023/04/28 05:28:35;;;;;;;31.20;14.70;;;;;;;;;;106547;1277;24295;-84
2023/04/28 05:31:04;;;;;;;31.80;14.10;;;;;;;;;;106665;1277;22537;-78
2023/04/28 05:33:34;;;;;;;29.30;13.30;;;;;;;;;;106711;1259;22568;-80
2023/04/28 05:36:07;;;;;;;26.10;12.20;;;;;;;;;;106892;1275;25331;-77
2023/04/28 05:38:39;;;;;;;31.40;13.10;;;;;;;;;;106863;1275;22576;-77
2023/04/28 05:41:26;;;;;;;26.20;13.30;;;;;;;;;;107025;1266;25330;-78
2023/04/28 05:43:55;;;;;;;23.40;12.80;;;;;;;;;;107199;1255;24182;-76
2023/04/28 05:46:25;;;;;;;27.20;12.50;;;;;;;;;;110661;1274;22210;-76
2023/04/28 05:48:51;;;;;;;21.90;12.30;;;;;;;;;;110709;1269;22439;-76
2023/04/28 05:51:18;;;;;;;22.20;12.00;;;;;;;;;;110608;1274;22800;-76
2023/04/28 05:53:47;;;;;;;25.30;13.20;;;;;;;;;;110607;1255;22148;-76
2023/04/28 05:56:15;;;;;;;24.80;12.00;;;;;;;;;;110530;1272;22152;-77
2023/04/28 05:58:46;;;;;;;25.00;12.10;;;;;;;;;;110517;1275;22121;-77
2023/04/28 06:01:14;;;;;;;25.00;11.10;;;;;;;;;;110533;1275;22135;-77
2023/04/28 06:03:40;;;;;;;21.20;10.60;;;;;;;;;;110804;1255;22128;-77
2023/04/28 06:06:08;;;;;;;24.00;11.10;;;;;;;;;;110642;1274;23051;-77
2023/04/28 06:08:34;;;;;;;19.90;10.20;;;;;;;;;;110612;1274;22214;-81
2023/04/28 06:11:04;;;;;;;21.30;10.40;;;;;;;;;;110620;1274;22877;-77
2023/04/28 06:13:31;;;;;;;23.70;11.40;;;;;;;;;;110754;1256;22135;-77
2023/04/28 06:15:58;;;;;;;21.70;10.20;;;;;;;;;;110428;1275;22033;-77
2023/04/28 06:18:25;;;;;;;21.40;11.10;;;;;;;;;;110577;1275;23028;-77
2023/04/28 06:20:52;;;;;;;21.80;10.30;;;;;;;;;;110515;1275;22173;-77
2023/04/28 06:23:20;;;;;;;20.30;10.20;;;;;;;;;;110747;1256;22160;-77
2023/04/28 06:25:48;;;;;;;18.80;9.50;;;;;;;;;;110628;1274;23143;-78
2023/04/28 06:28:14;;;;;;;24.20;10.50;;;;;;;;;;110644;1274;22148;-77
2023/04/28 06:30:41;;;;;;;20.30;9.90;;;;;;;;;;110633;1274;22084;-77
2023/04/28 06:33:08;;;;;;;17.50;9.10;;;;;;;;;;110556;1256;22184;-77
2023/04/28 06:35:37;;;;;;;14.50;8.00;;;;;;;;;;110514;1276;22307;-77
2023/04/28 06:38:05;;;;;;;16.20;8.00;;;;;;;;;;110614;1276;22767;-77
2023/04/28 06:40:32;;;;;;;16.40;7.90;;;;;;;;;;110447;1276;22090;-77
2023/04/28 06:43:01;;;;;;;16.70;8.00;;;;;;;;;;110481;1253;22990;-77
2023/04/28 06:45:37;;;;;;;16.40;8.20;;;;;;;;;;110477;1275;22112;-77
2023/04/28 06:48:04;;;;;;;14.70;7.40;;;;;;;;;;110599;1275;22327;-77
2023/04/28 06:50:31;;;;;;;15.50;7.50;;;;;;;;;;110579;1275;22835;-77
2023/04/28 06:52:58;;;;;;;14.50;7.20;;;;;;;;;;110565;1259;22085;-78
2023/04/28 06:55:25;;;;;;;16.90;7.90;;;;;;;;;;110914;1253;22161;-78
2023/04/28 06:57:52;;;;;;;16.20;6.60;;;;;;;;;;110656;1276;22179;-81
2023/04/28 07:00:19;;;;;;;14.50;6.30;;;;;;;;;;110476;1276;22364;-79
2023/04/28 07:02:45;;;;;;;11.70;5.70;;;;;;;;;;110612;1276;21984;-78
2023/04/28 07:05:12;;;;;;;14.70;6.60;;;;;;;;;;110828;1257;22148;-78
2023/04/28 07:07:39;;;;;;;13.40;6.50;;;;;;;;;;110588;1275;22190;-77
2023/04/28 07:10:06;;;;;;;13.00;6.60;;;;;;;;;;110615;1275;22109;-77
2023/04/28 07:12:33;;;;;;;12.40;5.80;;;;;;;;;;110559;1275;22415;-77
2023/04/28 07:15:01;;;;;;;12.90;6.20;;;;;;;;;;110885;1253;22202;-79
2023/04/28 07:17:28;;;;;;;14.80;6.20;;;;;;;;;;110684;1276;22106;-77
2023/04/28 07:19:55;;;;;;;15.50;6.20;;;;;;;;;;110626;1276;22101;-78
2023/04/28 07:22:21;;;;;;;13.20;5.90;;;;;;;;;;110605;1276;22098;-78
2023/04/28 07:24:48;;;;;;;15.20;6.10;;;;;;;;;;110762;1257;22222;-77
2023/04/28 07:27:14;;;;;;;14.50;6.50;;;;;;;;;;110474;1275;22328;-78
2023/04/28 07:29:41;;;;;;;14.90;7.00;;;;;;;;;;110600;1274;22195;-78
2023/04/28 07:32:09;;;;;;;11.90;6.00;;;;;;;;;;110506;1275;23044;-77
2023/04/28 07:34:36;;;;;;;13.00;6.20;;;;;;;;;;110544;1256;22145;-77
2023/04/28 07:37:03;;;;;;;12.60;5.90;;;;;;;;;;110488;1276;22334;-78
2023/04/28 07:39:30;;;;;;;12.40;5.70;;;;;;;;;;110418;1276;22803;-78
2023/04/28 07:41:57;;;;;;;13.60;6.00;;;;;;;;;;110502;1276;22173;-79
2023/04/28 07:44:24;;;;;;;14.90;6.00;;;;;;;;;;110548;1253;22205;-79
2023/04/28 07:46:52;;;;;;;11.70;5.40;;;;;;;;;;110565;1275;23168;-78
2023/04/28 07:49:19;;;;;;;12.60;4.90;;;;;;;;;;110543;1275;22145;-78
2023/04/28 07:51:46;;;;;;;16.90;8.00;;;;;;;;;;110567;1275;22158;-78
2023/04/28 07:54:12;;;;;;;12.50;5.50;;;;;;;;;;110556;1275;23102;-79
2023/04/28 07:56:39;;;;;;;13.30;5.80;;;;;;;;;;110370;1259;22146;-78
2023/04/28 07:59:06;;;;;;;10.40;5.50;;;;;;;;;;110511;1276;22163;-78
2023/04/28 08:01:33;;;;;;;14.30;5.20;;;;;;;;;;110527;1262;22370;-78
2023/04/28 08:04:00;;;;;;;15.10;6.10;;;;;;;;;;110536;1276;22121;-79
2023/04/28 08:06:26;;;;;;;12.90;4.60;;;;;;;;;;110636;1256;22269;-78
2023/04/28 08:08:53;;;;;;;9.50;3.40;;;;;;;;;;110614;1275;22107;-78
2023/04/28 08:11:21;;;;;;;11.20;3.40;;;;;;;;;;110520;1275;22356;-78
2023/04/28 08:13:48;;;;;;;16.10;3.90;;;;;;;;;;110612;1275;22093;-78
2023/04/28 08:16:15;;;;;;;12.40;3.80;;;;;;;;;;110553;1256;21968;-78
2023/04/28 08:18:42;;;;;;;16.00;4.70;;;;;;;;;;110506;1276;22102;-78
2023/04/28 08:21:09;;;;;;;17.40;4.00;;;;;;;;;;110537;1276;22194;-78
2023/04/28 08:23:35;;;;;;;11.30;2.70;;;;;;;;;;110457;1276;22089;-78
2023/04/28 08:26:04;;;;;;;14.50;3.90;;;;;;;;;;110700;1256;22123;-79
2023/04/28 08:28:32;;;;;;;8.70;2.90;;;;;;;;;;110570;1275;22184;-78
2023/04/28 08:30:59;;;;;;;10.50;3.00;;;;;;;;;;110570;1275;22079;-78
2023/04/28 08:33:29;;;;;;;9.90;3.10;;;;;;;;;;110567;1275;22107;-78
2023/04/28 08:35:56;;;;;;;8.60;3.10;;;;;;;;;;110668;1257;22170;-79
2023/04/28 08:38:24;;;;;;;9.10;3.20;;;;;;;;;;110392;1277;22064;-78
2023/04/28 08:40:50;;;;;;;14.70;10.80;;;;;;;;;;110473;1277;22113;-78
2023/04/28 08:43:19;;;;;;;10.80;3.80;;;;;;;;;;110447;1277;22098;-79
2023/04/28 08:45:46;;;;;;;9.90;3.20;;;;;;;;;;110493;1253;22081;-78
2023/04/28 08:48:21;;;;;;;13.20;3.40;;;;;;;;;;110610;1276;22120;-79
2023/04/28 08:50:52;;;;;;;11.50;3.50;;;;;;;;;;110483;1276;22840;-77
2023/04/28 08:53:25;;;;;;;10.30;2.90;;;;;;;;;;110488;1276;22851;-78
2023/04/28 08:56:13;;;;;;;8.40;2.80;;;;;;;;;;110544;1257;22177;-80
2023/04/28 09:05:45;;;;;;;12.50;3.00;;;;;;;;;;110422;1253;22869;-77
2023/04/28 09:08:13;;;;;;;18.80;3.10;;;;;;;;;;110466;1276;22115;-79
2023/04/28 09:10:39;;;;;;;12.50;2.90;;;;;;;;;;110600;1276;21935;-77
2023/04/28 09:13:06;;;;;;;8.90;2.70;;;;;;;;;;110619;1275;22109;-77
2023/04/28 09:15:34;;;;;;;9.30;2.30;;;;;;;;;;110617;1256;22157;-78
2023/04/28 09:18:05;;;;;;;16.50;3.30;;;;;;;;;;110948;1257;22130;-78
2023/04/28 09:20:32;;;;;;;15.00;2.40;;;;;;;;;;110654;1276;22299;-78
2023/04/28 09:23:13;;;;;;;11.90;3.50;;;;;;;;;;110491;1276;22150;-77
2023/04/28 09:25:39;;;;;;;9.40;2.60;;;;;;;;;;110570;1276;22315;-78
2023/04/28 09:28:19;;;;;;;19.40;3.20;;;;;;;;;;110633;1256;22124;-77
2023/04/28 09:30:46;;;;;;;18.80;2.80;;;;;;;;;;110641;1276;22208;-78
2023/04/28 09:33:14;;;;;;;7.30;2.30;;;;;;;;;;110596;1275;22089;-78
2023/04/28 09:35:44;;;;;;;11.00;2.80;;;;;;;;;;110533;1276;22176;-77
2023/04/28 09:38:11;;;;;;;8.90;2.70;;;;;;;;;;110821;1258;22100;-78
2023/04/28 09:40:54;;;;;;;16.50;3.30;;;;;;;;;;110550;1276;22189;-79
2023/04/28 09:43:28;;;;;;;8.90;2.70;;;;;;;;;;110510;1276;22194;-78
2023/04/28 09:45:56;;;;;;;7.40;2.20;;;;;;;;;;110546;1276;22085;-78
2023/04/28 09:48:29;;;;;;;9.10;2.60;;;;;;;;;;110631;1257;22190;-78
2023/04/28 09:50:58;;;;;;;9.80;3.10;;;;;;;;;;110537;1276;22116;-78
2023/04/28 09:53:25;;;;;;;9.40;2.20;;;;;;;;;;110545;1276;22800;-77
2023/04/28 09:55:53;;;;;;;7.00;2.10;;;;;;;;;;110562;1276;22316;-77
2023/04/28 09:58:20;;;;;;;9.50;2.70;;;;;;;;;;110824;1259;22153;-78
2023/04/28 10:00:55;;;;;;;15.70;2.80;;;;;;;;;;110466;1276;22104;-78
2023/04/28 10:03:23;;;;;;;8.90;2.80;;;;;;;;;;110461;1276;22914;-77
2023/04/28 10:05:51;;;;;;;9.90;2.70;;;;;;;;;;110544;1276;22806;-78
2023/04/28 10:08:21;;;;;;;11.00;2.70;;;;;;;;;;110458;1259;22176;-79
2023/04/28 10:10:48;;;;;;;7.10;2.20;;;;;;;;;;110447;1276;22144;-78
2023/04/28 10:13:16;;;;;;;8.10;2.50;;;;;;;;;;110556;1276;22689;-78
2023/04/28 10:15:43;;;;;;;7.70;2.60;;;;;;;;;;110611;1276;23026;-78
2023/04/28 10:18:10;;;;;;;12.60;3.30;;;;;;;;;;110557;1269;22829;-78
2023/04/28 10:20:37;;;;;;;24.50;3.20;;;;;;;;;;110457;1276;22119;-78
2023/04/28 10:23:27;;;;;;;22.00;3.00;;;;;;;;;;110552;1276;22285;-77
2023/04/28 10:25:56;;;;;;;11.00;2.50;;;;;;;;;;110550;1276;22263;-79
2023/04/28 10:28:22;;;;;;;7.50;2.50;;;;;;;;;;110561;1269;22097;-77
2023/04/28 10:31:07;;;;;;;15.90;2.30;;;;;;;;;;110530;1276;22110;-77
2023/04/28 10:33:34;;;;;;;18.20;3.10;;;;;;;;;;110537;1276;22173;-78
2023/04/28 10:36:03;;;;;;;8.20;2.40;;;;;;;;;;110444;1277;22216;-78
2023/04/28 10:38:29;;;;;;;8.00;2.10;;;;;;;;;;110539;1259;22087;-79
2023/04/28 10:41:01;;;;;;;17.10;2.20;;;;;;;;;;110397;1277;22208;-77
2023/04/28 10:43:28;;;;;;;12.00;2.40;;;;;;;;;;110458;1277;22009;-78
2023/04/28 10:46:00;;;;;;;7.70;2.00;;;;;;;;;;110463;1277;22814;-78
2023/04/28 10:48:28;;;;;;;6.60;2.30;;;;;;;;;;110451;1255;22838;-78
2023/04/28 10:53:49;;;;;;;10.20;2.00;;;;;;;;;;110362;1277;22087;-78
2023/04/28 10:56:24;;;;;;;7.20;2.00;;;;;;;;;;110505;1277;22155;-77
2023/04/28 10:58:52;;;;;;;8.00;1.80;;;;;;;;;;110462;1257;22821;-77
2023/04/28 11:01:19;;;;;;;7.60;2.00;;;;;;;;;;110455;1277;22140;-77
2023/04/28 11:04:06;;;;;;;15.30;2.40;;;;;;;;;;110369;1277;22127;-77
2023/04/28 11:06:34;;;;;;;10.50;1.90;;;;;;;;;;110449;1277;22250;-79
2023/04/28 11:09:02;;;;;;;9.10;1.90;;;;;;;;;;110444;1259;22122;-78
2023/04/28 11:11:33;;;;;;;6.60;1.90;;;;;;;;;;110447;1276;22784;-77
2023/04/28 11:14:20;;;;;;;12.00;2.10;;;;;;;;;;110351;1277;22298;-79
2023/04/28 11:16:47;;;;;;;8.50;2.00;;;;;;;;;;110367;1277;22119;-78
2023/04/28 11:19:17;;;;;;;9.50;2.40;;;;;;;;;;110585;1258;22403;-78
2023/04/28 11:21:44;;;;;;;11.40;1.90;;;;;;;;;;110342;1277;22112;-78
2023/04/28 11:24:10;;;;;;;7.80;2.20;;;;;;;;;;110470;1258;22110;-78
2023/04/28 11:26:38;;;;;;;8.80;2.00;;;;;;;;;;110378;1277;22184;-78
2023/04/28 11:29:05;;;;;;;8.60;2.20;;;;;;;;;;110400;1256;22204;-78
2023/04/28 11:31:32;;;;;;;18.20;3.00;;;;;;;;;;110445;1277;22061;-81
2023/04/28 11:34:02;;;;;;;7.90;2.20;;;;;;;;;;110459;1277;22155;-78
2023/04/28 11:36:37;;;;;;;9.80;1.80;;;;;;;;;;110447;1278;22024;-79
2023/04/28 11:39:09;;;;;;;17.80;2.60;;;;;;;;;;110325;1254;23040;-80
2023/04/28 11:41:45;;;;;;;41.60;3.50;;;;;;;;;;110290;1275;22225;-78
2023/04/28 11:44:15;;;;;;;7.70;1.80;;;;;;;;;;110467;1277;22191;-80
2023/04/28 11:46:50;;;;;;;13.00;2.10;;;;;;;;;;110301;1278;22085;-78
2023/04/28 11:49:18;;;;;;;6.30;2.00;;;;;;;;;;110282;1254;22125;-78
2023/04/28 11:51:48;;;;;;;7.20;2.10;;;;;;;;;;110463;1278;22917;-78
2023/04/28 11:54:29;;;;;;;9.10;2.30;;;;;;;;;;110313;1278;22122;-79
2023/04/28 11:56:57;;;;;;;9.20;2.40;;;;;;;;;;110325;1278;22132;-78
2023/04/28 11:59:32;;;;;;;11.80;2.90;;;;;;;;;;110335;1254;22607;-80
2023/04/28 12:02:01;;;;;;;11.10;2.00;;;;;;;;;;110314;1278;22257;-79
2023/04/28 12:04:36;;;;;;;12.80;2.20;;;;;;;;;;110306;1278;22203;-79
2023/04/28 12:07:05;;;;;;;9.80;2.10;;;;;;;;;;110331;1278;23205;-78
2023/04/28 12:09:33;;;;;;;18.00;2.40;;;;;;;;;;110303;1254;22769;-78
2023/04/28 12:12:01;;;;;;;8.50;2.00;;;;;;;;;;110443;1278;22072;-78
2023/04/28 12:14:30;;;;;;;9.10;2.40;;;;;;;;;;110434;1278;22099;-77
2023/04/28 12:16:58;;;;;;;7.70;1.90;;;;;;;;;;110330;1278;22130;-80
2023/04/28 12:19:26;;;;;;;18.10;2.90;;;;;;;;;;110319;1277;23121;-79
2023/04/28 12:22:04;;;;;;;7.50;1.80;;;;;;;;;;110364;1262;22067;-81
2023/04/28 12:24:39;;;;;;;21.50;2.80;;;;;;;;;;110479;1277;22114;-78
2023/04/28 12:27:15;;;;;;;12.60;2.30;;;;;;;;;;110436;1277;23135;-79
2023/04/28 12:29:44;;;;;;;8.50;2.20;;;;;;;;;;110433;1261;22363;-78
2023/04/28 12:32:12;;;;;;;8.50;2.20;;;;;;;;;;110328;1273;22101;-78
2023/04/28 12:34:40;;;;;;;8.00;1.80;;;;;;;;;;110193;1278;22155;-79
2023/04/28 12:37:14;;;;;;;8.10;2.30;;;;;;;;;;110293;1278;22350;-78
2023/04/28 12:39:53;;;;;;;11.40;2.70;;;;;;;;;;110281;1278;22324;-80
2023/04/28 12:42:24;;;;;;;11.30;2.30;;;;;;;;;;110753;1259;22521;-79
2023/04/28 12:44:53;;;;;;;10.50;2.10;;;;;;;;;;110426;1278;22096;-77
2023/04/28 12:47:23;;;;;;;10.20;3.10;;;;;;;;;;110240;1276;22113;-79
2023/04/28 12:49:52;;;;;;;8.90;2.40;;;;;;;;;;110342;1278;22128;-78
2023/04/28 12:52:32;;;;;;;10.70;2.00;;;;;;;;;;110293;1262;22205;-78
2023/04/28 12:55:02;;;;;;;9.20;2.30;;;;;;;;;;110340;1278;22109;-78
2023/04/28 12:57:32;;;;;;;7.50;1.80;;;;;;;;;;110276;1278;22170;-79
2023/04/28 13:00:01;;;;;;;10.60;2.40;;;;;;;;;;110406;1277;22163;-79
2023/04/28 13:02:30;;;;;;;8.10;1.80;;;;;;;;;;110593;1259;22132;-78
2023/04/28 13:05:00;;;;;;;22.00;3.00;;;;;;;;;;110324;1278;22393;-78
2023/04/28 13:07:29;;;;;;;9.10;2.10;;;;;;;;;;110329;1278;22185;-77
2023/04/28 13:09:58;;;;;;;8.80;2.30;;;;;;;;;;110346;1278;22765;-79
2023/04/28 13:12:27;;;;;;;9.30;2.30;;;;;;;;;;110579;1259;22118;-78
2023/04/28 13:14:56;;;;;;;7.90;2.30;;;;;;;;;;110293;1275;22114;-78
2023/04/28 13:17:26;;;;;;;7.30;1.90;;;;;;;;;;110325;1278;22961;-78
2023/04/28 13:19:55;;;;;;;11.40;1.80;;;;;;;;;;110355;1278;22898;-82
2023/04/28 13:22:24;;;;;;;7.30;2.20;;;;;;;;;;110289;1259;22154;-78
2023/04/28 13:24:52;;;;;;;7.90;2.10;;;;;;;;;;110331;1278;21800;-78
2023/04/28 13:27:22;;;;;;;6.60;1.70;;;;;;;;;;110347;1270;22104;-78
2023/04/28 13:29:51;;;;;;;11.60;2.20;;;;;;;;;;110274;1278;22119;-78
2023/04/28 13:32:20;;;;;;;10.30;2.60;;;;;;;;;;110553;1259;22262;-79
2023/04/28 13:41:49;;;;;;;6.90;1.80;;;;;;;;;;104228;1289;545541;-81
2023/04/28 13:44:16;;;;;;;6.20;1.70;;;;;;;;;;106230;1285;22622;-79
2023/04/28 13:46:43;;;;;;;9.30;2.40;;;;;;;;;;106161;1285;24218;-80
2023/04/28 13:49:12;;;;;;;8.70;2.20;;;;;;;;;;106269;1285;26487;-78
2023/04/28 13:51:39;;;;;;;11.00;2.20;;;;;;;;;;106140;1269;25551;-85
2023/04/28 13:54:07;;;;;;;8.80;2.20;;;;;;;;;;106203;1279;24213;-84
2023/04/28 13:56:35;;;;;;;9.10;2.00;;;;;;;;;;102409;1276;5471979;-81
2023/04/28 13:59:02;;;;;;;7.10;2.20;;;;;;;;;;106214;1283;25214;-77
2023/04/28 14:01:32;;;;;;;14.20;1.90;;;;;;;;;;106252;1276;22537;-80
2023/04/28 14:03:58;;;;;;;9.30;2.20;;;;;;;;;;106236;1283;22564;-83
2023/04/28 14:06:26;;;;;;;8.20;2.20;;;;;;;;;;106202;1283;22545;-80
2023/04/28 14:08:53;;;;;;;9.80;2.40;;;;;;;;;;106420;1282;22533;-78
2023/04/28 14:11:22;;;;;;;8.40;2.30;;;;;;;;;;106328;1260;22527;-82
2023/04/28 14:13:51;;;;;;;6.80;2.00;;;;;;;;;;106435;1277;24209;-80
2023/04/28 14:16:18;;;;;;;7.40;2.30;;;;;;;;;;106430;1283;25131;-80
2023/04/28 14:18:48;;;;;;;9.10;2.50;;;;;;;;;;106257;1284;24070;-83
2023/04/28 14:21:15;;;;;;;9.00;2.20;;;;;;;;;;106294;1283;22523;-78
2023/04/28 14:23:42;;;;;;;8.60;2.50;;;;;;;;;;106316;1275;25352;-81
2023/04/28 14:26:09;;;;;;;6.20;2.20;;;;;;;;;;106415;1283;24508;-84
2023/04/28 14:28:36;;;;;;;7.20;2.70;;;;;;;;;;106364;1283;22486;-81
2023/04/28 14:31:07;;;;;;;9.10;2.80;;;;;;;;;;106395;1282;22540;-81
2023/04/28 14:33:34;;;;;;;6.80;2.30;;;;;;;;;;106359;1266;24250;-80
2023/04/28 14:36:06;;;;;;;8.50;2.60;;;;;;;;;;106173;1285;25476;-80
2023/04/28 14:38:33;;;;;;;6.90;2.20;;;;;;;;;;106170;1282;22547;-80
2023/04/28 14:41:00;;;;;;;9.70;2.80;;;;;;;;;;106341;1282;25467;-82
2023/04/28 14:43:27;;;;;;;7.90;2.00;;;;;;;;;;106369;1275;25234;-85
2023/04/28 14:45:54;;;;;;;8.70;2.30;;;;;;;;;;106390;1282;22550;-82
2023/04/28 14:48:24;;;;;;;7.90;2.40;;;;;;;;;;106421;1282;25437;-79
2023/04/28 14:50:51;;;;;;;8.60;2.60;;;;;;;;;;106506;1282;22527;-80
2023/04/28 14:53:22;;;;;;;11.40;2.60;;;;;;;;;;106621;1259;22504;-80
2023/04/28 14:55:49;;;;;;;7.70;2.20;;;;;;;;;;106751;1278;25416;-79